Time;durP1;ratioP1;P1;durP2;ratioP2;P2;SDS_P1;SDS_P2;PMS_P1;PMS_P2;Temp;Humidity;BMP_temperature;BMP_pressure;BME280_temperature;BME280_humidity;BME280_pressure;Samples;Min_cycle;Max_cycle;Signal;HPM_P1;HPM_P2
2021/12/10 00:01:11;;;;;;;9.38;4.95;;;3.80;99.90;;;2.01;100.00;99529.19;2567781;30;137286;-37
2021/12/10 00:03:45;;;;;;;8.75;4.57;;;3.70;99.90;;;2.08;100.00;99521.22;2569822;30;137444;-37
2021/12/10 00:06:37;;;;;;;9.70;5.03;;;3.80;99.90;;;1.98;100.00;99500.81;2568241;30;137770;-37
2021/12/10 00:09:20;;;;;;;9.48;4.88;;;3.80;99.90;;;2.09;100.00;99515.63;2570242;30;139098;-38
2021/12/10 00:12:40;;;;;;;11.18;5.03;;;3.80;99.90;;;2.10;100.00;99503.84;2566791;30;137614;-37
2021/12/10 00:15:09;;;;;;;10.18;5.18;;;3.90;99.90;;;2.12;100.00;99501.81;2567592;30;138173;-37
2021/12/10 00:17:37;;;;;;;9.90;5.20;;;3.90;99.90;;;2.15;100.00;99496.06;2568188;30;137532;-37
2021/12/10 00:20:07;;;;;;;;;;;3.90;99.90;;;2.17;100.00;99493.16;2569522;30;138448;-37
2021/12/10 00:22:46;;;;;;;9.23;5.20;;;3.90;99.90;;;2.18;100.00;99475.97;2568305;30;136957;-37
2021/12/10 00:25:18;;;;;;;;;;;3.90;99.90;;;2.28;100.00;99465.75;2566268;30;139362;-38
2021/12/10 00:27:49;;;;;;;8.05;5.03;;;4.00;99.90;;;2.27;100.00;99464.09;2568775;30;136928;-37
2021/12/10 00:30:27;;;;;;;10.10;5.30;;;4.00;99.90;;;2.26;100.00;99453.50;2565855;30;138335;-38
2021/12/10 00:33:10;;;;;;;;;;;4.00;99.90;;;2.28;100.00;99452.31;2568009;30;137694;-37
2021/12/10 00:35:39;;;;;;;8.73;5.32;;;4.00;99.90;;;2.32;100.00;99451.91;2567673;30;139041;-37
2021/12/10 00:38:08;;;;;;;9.32;4.97;;;4.10;99.90;;;2.27;100.00;99439.88;2566598;30;137362;-37
2021/12/10 00:40:36;;;;;;;8.43;5.18;;;4.00;99.90;;;2.28;100.00;99441.53;2568285;30;137779;-37
2021/12/10 00:43:04;;;;;;;7.35;4.50;;;4.00;99.90;;;2.32;100.00;99435.75;2567754;30;138354;-37
2021/12/10 00:45:31;;;;;;;;;;;4.10;99.90;;;2.32;100.00;99436.56;2567876;30;137311;-37
2021/12/10 00:47:59;;;;;;;9.35;4.80;;;4.10;99.90;;;2.29;100.00;99435.13;2566537;30;137196;-38
2021/12/10 00:50:32;;;;;;;;;;;4.00;99.90;;;2.27;100.00;99434.47;2568540;30;139189;-38
2021/12/10 00:53:01;;;;;;;8.48;4.10;;;4.00;99.90;;;2.32;100.00;99425.81;2569575;30;136941;-37
2021/12/10 00:55:29;;;;;;;8.30;4.60;;;4.00;99.90;;;2.33;100.00;99435.56;2567670;30;138867;-38
2021/12/10 00:57:58;;;;;;;8.35;4.40;;;4.10;99.90;;;2.34;100.00;99434.53;2567218;30;136738;-37
2021/12/10 01:00:41;;;;;;;8.95;4.63;;;4.10;99.90;;;2.30;100.00;99430.56;2566520;30;137280;-37
2021/12/10 01:03:13;;;;;;;8.85;4.60;;;4.10;99.90;;;2.38;100.00;99416.13;2568378;30;138250;-37
2021/12/10 01:05:48;;;;;;;7.95;4.20;;;4.10;99.90;;;2.35;100.00;99417.34;2567587;30;138410;-38
2021/12/10 01:08:16;;;;;;;7.72;4.10;;;4.10;99.90;;;2.35;100.00;99413.84;2568470;30;136773;-37
2021/12/10 01:10:55;;;;;;;6.80;4.55;;;4.10;99.90;;;2.26;100.00;99416.66;2567186;30;137383;-37
2021/12/10 01:13:28;;;;;;;7.72;3.92;;;4.10;99.90;;;2.38;100.00;99422.34;2568115;30;136608;-38
2021/12/10 01:27:34;;;;;;;7.78;4.10;;;4.10;99.90;;;2.27;100.00;99393.25;2568468;30;138176;-37
2021/12/10 01:30:14;;;;;;;5.57;3.28;;;4.10;99.90;;;2.19;100.00;99383.47;2566118;30;137360;-38
2021/12/10 01:32:50;;;;;;;7.97;3.75;;;4.00;99.90;;;2.06;100.00;99378.78;2567550;30;138184;-38
2021/12/10 01:35:23;;;;;;;8.90;3.75;;;3.90;99.90;;;1.91;100.00;99362.72;2565368;30;136729;-37
2021/12/10 01:37:57;;;;;;;7.70;3.58;;;3.80;99.90;;;1.84;100.00;99365.31;2568837;30;138263;-38
2021/12/10 01:40:27;;;;;;;10.75;3.78;;;3.70;99.90;;;1.82;100.00;99351.22;2568471;30;137698;-38
2021/12/10 01:43:05;;;;;;;8.30;3.75;;;3.60;99.90;;;1.75;100.00;99346.84;2568525;30;138237;-37
2021/12/10 01:45:47;;;;;;;6.45;3.72;;;3.60;99.90;;;1.67;100.00;99337.84;2569047;30;136755;-38
2021/12/10 01:48:27;;;;;;;7.32;3.60;;;3.50;99.90;;;1.61;100.00;99340.47;2568883;30;139315;-37
2021/12/10 01:50:57;;;;;;;5.88;3.15;;;3.40;99.90;;;1.56;100.00;99346.41;2567301;30;138211;-38
2021/12/10 01:53:31;;;;;;;6.50;2.97;;;3.40;99.90;;;1.55;100.00;99356.31;2566375;30;138151;-37
2021/12/10 01:56:06;;;;;;;6.40;3.35;;;3.40;99.90;;;1.48;100.00;99344.66;2567653;30;136737;-37
2021/12/10 01:58:34;;;;;;;10.02;3.08;;;3.30;99.90;;;1.49;100.00;99345.53;2567699;30;138888;-38
2021/12/10 02:01:12;;;;;;;5.60;2.80;;;3.30;99.90;;;1.49;100.00;99340.97;2566980;30;136975;-37
2021/12/10 02:03:42;;;;;;;8.10;2.92;;;3.30;99.90;;;1.53;100.00;99342.25;2567885;30;138076;-37
2021/12/10 02:06:10;;;;;;;6.15;2.83;;;3.30;99.90;;;1.60;100.00;99338.81;2566077;30;136892;-38
2021/12/10 02:08:39;;;;;;;8.88;3.10;;;3.30;99.90;;;1.67;100.00;99327.09;2567260;30;138259;-37
2021/12/10 02:11:08;;;;;;;9.88;3.30;;;3.40;99.90;;;1.61;100.00;99308.22;2567943;30;137601;-37
2021/12/10 02:13:39;;;;;;;6.50;2.92;;;3.40;99.90;;;1.62;100.00;99299.13;2567975;30;138162;-37
2021/12/10 02:16:08;;;;;;;7.75;3.00;;;3.40;99.90;;;1.60;100.00;99293.13;2567628;30;138437;-37
2021/12/10 02:18:35;;;;;;;5.70;3.40;;;3.40;99.90;;;1.60;100.00;99287.75;2566857;30;138109;-38
2021/12/10 02:21:03;;;;;;;8.70;3.65;;;3.40;99.90;;;1.61;100.00;99281.34;2567645;30;136636;-37
2021/12/10 02:23:36;;;;;;;9.23;3.42;;;3.40;99.90;;;1.52;100.00;99291.38;2567876;30;138351;-38
2021/12/10 02:26:11;;;;;;;6.35;3.20;;;3.30;99.90;;;1.45;100.00;99285.91;2566423;30;137653;-37
2021/12/10 02:28:41;;;;;;;9.30;3.50;;;3.30;99.90;;;1.61;99.79;99278.66;2565574;30;137799;-37
2021/12/10 02:31:12;;;;;;;5.57;2.97;;;3.30;99.90;;;1.59;99.57;99270.75;2567504;30;139975;-37
2021/12/10 02:33:41;;;;;;;10.35;3.70;;;3.40;99.90;;;1.50;99.65;99259.28;2568992;30;138133;-37
2021/12/10 02:36:12;;;;;;;7.40;3.67;;;3.30;99.90;;;1.44;99.72;99246.63;2567706;30;136713;-37
2021/12/10 02:38:47;;;;;;;8.40;3.58;;;3.30;99.90;;;1.44;99.47;99241.25;2568525;30;137772;-38
2021/12/10 02:41:19;;;;;;;9.25;3.15;;;3.30;99.90;;;1.41;99.82;99223.63;2567981;30;136971;-37
2021/12/10 02:43:47;;;;;;;5.28;2.78;;;3.20;99.90;;;1.36;99.52;99222.56;2567848;30;139146;-37
2021/12/10 02:46:15;;;;;;;7.85;3.40;;;3.20;99.90;;;1.31;100.00;99216.91;2566466;30;137332;-37
2021/12/10 02:48:43;;;;;;;6.95;2.90;;;3.10;99.90;;;1.25;100.00;99210.47;2568097;30;138838;-38
2021/12/10 02:51:12;;;;;;;6.88;3.20;;;3.10;99.90;;;1.19;100.00;99211.22;2568283;30;137473;-38
2021/12/10 02:53:44;;;;;;;7.28;3.25;;;3.00;99.90;;;1.20;100.00;99202.97;2567405;30;138155;-38
2021/12/10 02:56:20;;;;;;;6.78;3.58;;;3.00;99.90;;;1.11;100.00;99190.69;2565822;30;138104;-38
2021/12/10 02:58:53;;;;;;;8.93;3.63;;;3.00;99.90;;;1.12;100.00;99181.63;2568541;30;138308;-38
2021/12/10 03:01:35;;;;;;;8.63;3.65;;;2.90;99.90;;;1.21;100.00;99183.16;2568480;30;137381;-37
2021/12/10 03:04:07;;;;;;;9.40;3.72;;;3.00;99.90;;;1.18;100.00;99180.00;2568394;30;137017;-37
2021/12/10 03:06:44;;;;;;;6.63;3.30;;;3.00;99.90;;;1.08;100.00;99175.78;2565300;30;137872;-37
2021/12/10 03:09:14;;;;;;;7.05;3.35;;;3.00;99.90;;;1.05;100.00;99172.63;2569539;30;137076;-37
2021/12/10 03:11:46;;;;;;;7.72;3.55;;;2.90;99.90;;;0.99;100.00;99180.44;2567773;30;136673;-37
2021/12/10 03:14:20;;;;;;;8.70;3.50;;;2.80;99.90;;;0.95;100.00;99175.66;2568752;30;139022;-37
2021/12/10 03:16:52;;;;;;;7.93;3.17;;;2.80;99.90;;;0.99;100.00;99172.38;2568420;30;137474;-37
2021/12/10 03:19:20;;;;;;;8.30;3.42;;;2.80;99.90;;;0.92;100.00;99163.44;2568221;30;137382;-37
2021/12/10 03:21:51;;;;;;;7.25;3.17;;;2.80;99.90;;;0.90;100.00;99161.94;2569153;30;137495;-38
2021/12/10 03:24:23;;;;;;;8.32;3.00;;;2.70;99.90;;;0.94;100.00;99164.06;2565403;30;138869;-36
2021/12/10 03:26:54;;;;;;;6.70;2.88;;;2.80;99.90;;;0.93;100.00;99153.50;2569205;30;137071;-38
2021/12/10 03:29:24;;;;;;;8.32;2.90;;;2.80;99.90;;;0.99;100.00;99148.22;2567823;30;137285;-40
2021/12/10 03:31:55;;;;;;;6.28;2.90;;;2.80;99.90;;;0.99;100.00;99145.53;2569231;30;138462;-40
2021/12/10 03:34:23;;;;;;;8.32;2.60;;;2.80;99.90;;;1.11;100.00;99135.09;2568471;30;138090;-40
2021/12/10 03:36:53;;;;;;;6.00;2.35;;;2.90;99.90;;;1.05;100.00;99135.03;2565459;30;137163;-40
2021/12/10 03:39:25;;;;;;;5.20;2.40;;;2.90;99.90;;;1.07;100.00;99127.63;2566978;30;138812;-40
2021/12/10 03:41:57;;;;;;;5.18;2.20;;;2.90;99.90;;;1.06;100.00;99121.41;2567950;30;137527;-40
2021/12/10 03:44:26;;;;;;;4.53;2.05;;;2.90;99.90;;;1.12;100.00;99122.50;2568731;30;138208;-39
2021/12/10 03:46:58;;;;;;;7.82;2.28;;;2.90;99.90;;;1.11;100.00;99107.41;2568110;30;137566;-40
2021/12/10 03:49:26;;;;;;;4.70;1.65;;;2.90;99.90;;;1.21;100.00;99101.72;2568570;30;137038;-40
2021/12/10 03:51:54;;;;;;;7.60;2.30;;;3.00;99.90;;;1.15;100.00;99103.31;2568339;30;138242;-39
2021/12/10 03:54:21;;;;;;;5.43;1.80;;;3.00;99.90;;;1.08;100.00;99102.44;2567830;30;139220;-40
2021/12/10 03:56:50;;;;;;;3.30;1.85;;;2.90;99.90;;;1.05;100.00;99102.78;2569095;30;137272;-40
2021/12/10 03:59:23;;;;;;;4.13;1.95;;;2.90;99.90;;;0.98;100.00;99097.38;2567582;30;138172;-40
2021/12/10 04:01:55;;;;;;;4.97;1.73;;;2.80;99.90;;;0.95;100.00;99097.78;2568410;30;139066;-40
2021/12/10 04:04:36;;;;;;;6.65;2.00;;;2.80;99.90;;;0.89;100.00;99091.31;2567727;30;138364;-40
2021/12/10 04:07:13;;;;;;;7.80;1.67;;;2.70;99.90;;;0.90;100.00;99094.81;2568917;30;137320;-40
2021/12/10 04:09:41;;;;;;;4.82;1.63;;;2.70;99.90;;;0.93;100.00;99083.69;2569110;30;138261;-40
2021/12/10 04:12:10;;;;;;;5.57;1.67;;;2.70;99.90;;;1.05;100.00;99087.53;2567265;30;137405;-40
2021/12/10 04:14:41;;;;;;;5.72;1.60;;;2.80;99.90;;;1.04;100.00;99076.97;2568048;30;138224;-40
2021/12/10 04:17:09;;;;;;;5.32;1.40;;;2.80;99.90;;;0.97;99.93;99090.34;2566640;30;137412;-40
2021/12/10 04:19:37;;;;;;;;;;;2.80;99.90;;;0.94;100.00;99083.50;2567998;30;138807;-40
2021/12/10 04:22:08;;;;;;;4.60;1.60;;;2.80;99.90;;;1.18;99.80;99067.16;2567389;30;136864;-40
2021/12/10 04:24:39;;;;;;;6.18;1.70;;;2.90;99.90;;;1.19;99.44;99061.59;2566820;30;139023;-40
2021/12/10 04:27:11;;;;;;;7.03;1.70;;;2.90;99.90;;;1.29;99.26;99056.72;2568461;30;136689;-40
2021/12/10 04:29:39;;;;;;;5.97;1.52;;;3.00;99.90;;;1.35;98.77;99048.91;2568764;30;137542;-40
2021/12/10 04:32:10;;;;;;;;;;;3.10;99.90;;;1.33;98.30;99048.28;2567896;30;137564;-40
2021/12/10 04:34:39;;;;;;;7.88;1.40;;;3.10;99.90;;;1.33;98.22;99050.97;2568337;30;137935;-40
2021/12/10 04:37:10;;;;;;;5.00;1.38;;;3.10;99.90;;;1.35;98.54;99046.22;2569327;30;136659;-40
2021/12/10 04:39:44;;;;;;;4.68;1.73;;;3.10;99.90;;;1.26;98.56;99046.34;2567496;30;138035;-40
2021/12/10 04:42:23;;;;;;;3.28;1.02;;;3.10;99.90;;;1.33;98.54;99041.03;2565219;30;138316;-40
2021/12/10 04:44:56;;;;;;;4.72;1.42;;;3.10;99.90;;;1.38;98.35;99037.78;2568267;30;138720;-40
2021/12/10 04:47:27;;;;;;;8.02;1.80;;;3.10;99.90;;;1.41;98.15;99027.44;2568759;30;137358;-40
2021/12/10 04:49:55;;;;;;;4.45;1.50;;;3.20;99.90;;;1.41;98.16;99023.94;2567552;30;137173;-40
2021/12/10 04:52:24;;;;;;;7.10;1.38;;;3.20;99.90;;;1.44;97.53;99018.16;2567495;30;137009;-40
2021/12/10 04:54:52;;;;;;;6.18;1.33;;;3.20;99.90;;;1.32;98.03;99022.41;2566807;30;137526;-40
2021/12/10 04:57:19;;;;;;;6.18;1.30;;;3.10;99.90;;;1.35;97.79;99014.00;2568381;30;137438;-40
2021/12/10 04:59:47;;;;;;;4.78;1.30;;;3.20;99.90;;;1.36;97.72;99011.09;2568428;30;138183;-40
2021/12/10 05:02:18;;;;;;;6.30;1.45;;;3.20;99.90;;;1.35;97.62;99005.91;2568234;30;138249;-40
2021/12/10 05:04:47;;;;;;;4.15;1.10;;;3.10;99.90;;;1.24;97.60;98991.19;2566844;30;138309;-40
2021/12/10 05:07:17;;;;;;;10.43;2.13;;;3.10;99.90;;;1.28;97.84;98989.75;2568090;30;137758;-40
2021/12/10 05:09:45;;;;;;;8.73;1.23;;;3.10;99.90;;;1.25;98.13;98979.41;2566673;30;138351;-40
2021/12/10 05:12:13;;;;;;;6.00;1.17;;;3.10;99.90;;;1.35;97.39;98971.00;2566042;30;138348;-40
2021/12/10 05:14:41;;;;;;;;;;;3.10;99.90;;;1.47;96.97;98966.69;2567431;30;137848;-39
2021/12/10 05:17:10;;;;;;;3.90;1.10;;;3.20;99.90;;;1.37;97.08;98967.06;2569065;30;137023;-40
2021/12/10 05:19:42;;;;;;;8.95;1.40;;;3.20;99.90;;;1.40;97.44;98966.66;2567849;30;137493;-39
2021/12/10 05:22:12;;;;;;;10.27;1.88;;;3.20;99.90;;;1.45;96.90;98960.69;2568892;30;138369;-39
2021/12/10 05:24:39;;;;;;;6.30;1.40;;;3.20;99.90;;;1.35;96.91;98952.19;2567153;30;138256;-40
2021/12/10 05:27:07;;;;;;;3.85;1.95;;;3.20;99.90;;;1.35;97.18;98953.00;2566900;30;138485;-40
2021/12/10 05:29:34;;;;;;;3.80;1.23;;;3.20;99.90;;;1.37;97.18;98950.94;2566906;30;138251;-40
2021/12/10 05:32:05;;;;;;;5.15;1.30;;;3.20;99.90;;;1.27;97.40;98940.53;2568271;30;138357;-40
2021/12/10 05:34:32;;;;;;;6.53;1.58;;;3.10;99.90;;;1.28;97.07;98947.56;2566473;30;138050;-40
2021/12/10 05:37:00;;;;;;;7.10;1.67;;;3.10;99.90;;;1.24;96.95;98937.44;2568429;30;137536;-40
2021/12/10 05:39:28;;;;;;;7.88;2.25;;;3.10;99.90;;;1.36;96.46;98932.34;2567609;30;137409;-40
2021/12/10 05:41:56;;;;;;;6.07;1.73;;;3.10;99.90;;;1.35;96.61;98931.50;2568157;30;137369;-39
2021/12/10 05:44:23;;;;;;;6.93;2.00;;;3.10;99.90;;;1.33;96.86;98924.69;2567670;30;138202;-40
2021/12/10 05:46:51;;;;;;;6.30;1.90;;;3.10;99.90;;;1.37;96.35;98916.00;2569002;30;137591;-40
2021/12/10 05:49:19;;;;;;;7.82;1.77;;;3.10;99.90;;;1.28;96.63;98912.66;2564477;30;138004;-40
2021/12/10 05:51:46;;;;;;;;;;;3.10;99.90;;;1.24;96.49;98911.38;2567144;30;136914;-40
2021/12/10 05:54:14;;;;;;;8.98;2.00;;;3.10;99.90;;;1.36;96.13;98897.41;2567635;30;138607;-40
2021/12/10 05:56:42;;;;;;;6.43;2.08;;;3.10;99.90;;;1.31;96.27;98895.31;2567170;30;137118;-40
2021/12/10 05:59:09;;;;;;;5.50;1.80;;;3.10;99.90;;;1.37;95.93;98899.06;2568120;30;137235;-39
2021/12/10 06:01:37;;;;;;;7.38;2.05;;;3.10;99.90;;;1.37;95.50;98907.13;2567997;30;137449;-40
2021/12/10 06:04:05;;;;;;;6.93;1.92;;;3.10;99.90;;;1.35;95.67;98906.50;2567580;30;137913;-40
2021/12/10 06:06:33;;;;;;;6.82;1.88;;;3.20;99.90;;;1.35;95.68;98910.00;2568263;30;137453;-40
2021/12/10 06:09:08;;;;;;;6.90;2.38;;;3.10;99.90;;;1.35;95.66;98909.19;2566236;30;137182;-40
2021/12/10 06:11:36;;;;;;;8.30;2.05;;;3.10;99.90;;;1.23;95.88;98901.66;2568847;30;137531;-40
2021/12/10 06:14:06;;;;;;;6.95;2.00;;;3.10;99.90;;;1.32;95.69;98896.13;2568316;30;138335;-40
2021/12/10 06:16:35;;;;;;;7.20;2.35;;;3.10;99.90;;;1.21;95.94;98897.53;2568219;30;137732;-40
2021/12/10 06:19:06;;;;;;;8.35;2.10;;;3.00;99.90;;;1.22;96.21;98897.31;2568737;30;138766;-39
2021/12/10 06:21:37;;;;;;;5.50;2.50;;;3.00;99.90;;;1.27;96.25;98896.72;2568761;30;138262;-39
2021/12/10 06:24:06;;;;;;;5.68;2.10;;;3.10;99.90;;;1.22;95.69;98897.31;2568157;30;139009;-40
2021/12/10 06:26:34;;;;;;;5.05;1.90;;;3.10;99.90;;;1.12;96.37;98888.81;2569278;30;137357;-40
2021/12/10 06:29:04;;;;;;;;;;;3.00;99.90;;;1.26;95.62;98885.16;2569235;30;138151;-40
2021/12/10 06:31:32;;;;;;;;;;;3.10;99.90;;;1.25;95.65;98883.50;2568580;30;137027;-40
2021/12/10 06:34:01;;;;;;;8.65;2.28;;;3.00;99.90;;;1.20;95.88;98875.19;2567170;30;137675;-40
2021/12/10 06:36:30;;;;;;;6.78;2.30;;;3.00;99.90;;;1.18;95.85;98871.03;2568583;30;136852;-40
2021/12/10 06:39:00;;;;;;;5.35;2.38;;;3.00;99.90;;;1.18;95.85;98871.03;2568266;30;138188;-40
2021/12/10 06:41:27;;;;;;;9.90;2.25;;;3.00;99.90;;;1.12;95.97;98868.13;2568546;30;137653;-39
2021/12/10 06:43:55;;;;;;;5.78;2.45;;;3.00;99.90;;;1.25;95.24;98877.31;2568715;30;138561;-40
2021/12/10 06:46:23;;;;;;;6.53;2.20;;;3.00;99.90;;;1.19;95.47;98862.81;2568207;30;137726;-40
2021/12/10 06:48:50;;;;;;;6.85;2.05;;;3.00;99.90;;;1.06;95.96;98860.88;2569728;30;138155;-39
2021/12/10 06:51:21;;;;;;;7.70;2.70;;;3.00;99.90;;;1.12;95.55;98861.94;2568484;30;137396;-40
2021/12/10 06:53:49;;;;;;;6.95;2.53;;;2.90;99.90;;;1.11;95.68;98871.03;2567686;30;138131;-40
2021/12/10 06:56:21;;;;;;;8.25;2.28;;;2.90;99.90;;;1.21;95.50;98868.81;2567276;30;137432;-40
2021/12/10 06:58:51;;;;;;;6.50;1.98;;;3.00;99.90;;;1.11;95.19;98863.78;2568308;30;138257;-40
2021/12/10 07:01:23;;;;;;;4.63;1.83;;;2.90;99.90;;;1.09;96.21;98862.34;2566752;30;137459;-40
2021/12/10 07:03:54;;;;;;;7.68;2.00;;;2.90;99.90;;;0.98;96.37;98867.22;2568664;30;136944;-40
2021/12/10 07:06:25;;;;;;;6.03;2.20;;;2.80;99.90;;;0.99;96.09;98862.72;2565853;30;138566;-40
2021/12/10 07:08:55;;;;;;;5.10;2.08;;;2.80;99.90;;;0.95;96.77;98864.13;2567936;30;138993;-40
2021/12/10 07:11:24;;;;;;;8.95;2.30;;;2.80;99.90;;;1.06;95.92;98860.88;2565873;30;137544;-40
2021/12/10 07:13:56;;;;;;;7.55;2.00;;;2.80;99.90;;;1.12;95.81;98862.75;2568039;30;138317;-40
2021/12/10 07:16:27;;;;;;;6.60;1.60;;;2.90;99.90;;;1.16;95.35;98860.50;2567842;30;138283;-40
2021/12/10 07:18:58;;;;;;;5.60;1.73;;;2.90;99.90;;;1.28;94.90;98861.59;2567047;30;138034;-40
2021/12/10 07:21:29;;;;;;;5.32;1.85;;;3.00;99.90;;;1.27;94.54;98859.94;2567315;30;137587;-40
2021/12/10 07:23:57;;;;;;;6.07;1.95;;;3.00;99.90;;;1.32;94.13;98853.13;2567809;30;137920;-39
2021/12/10 07:26:27;;;;;;;4.00;2.00;;;3.10;99.90;;;1.34;94.73;98856.47;2567515;30;137623;-40
2021/12/10 07:28:55;;;;;;;6.18;1.80;;;3.10;99.90;;;1.23;94.34;98856.00;2568325;30;139425;-40
2021/12/10 07:31:23;;;;;;;10.40;2.10;;;3.10;99.90;;;1.18;94.72;98857.63;2568638;30;137363;-40
2021/12/10 07:33:51;;;;;;;5.85;1.55;;;3.00;99.90;;;1.19;94.72;98859.28;2568770;30;137090;-40
2021/12/10 07:36:18;;;;;;;5.30;1.70;;;3.00;99.90;;;1.26;94.28;98862.84;2566536;30;137590;-40
2021/12/10 07:38:46;;;;;;;4.45;1.60;;;3.10;99.90;;;1.31;93.77;98870.28;2567928;30;137803;-40
2021/12/10 07:41:14;;;;;;;8.93;1.80;;;3.10;99.90;;;1.34;93.14;98851.09;2568720;30;136629;-40
2021/12/10 07:43:44;;;;;;;9.40;1.65;;;3.20;99.90;;;1.50;93.23;98857.97;2568503;30;138118;-40
2021/12/10 07:46:12;;;;;;;11.50;2.20;;;3.20;99.90;;;1.49;92.76;98856.31;2568815;30;137175;-40
2021/12/10 07:48:43;;;;;;;4.72;1.58;;;3.20;99.90;;;1.50;92.75;98849.91;2567981;30;137132;-40
2021/12/10 07:51:20;;;;;;;5.57;1.80;;;3.30;99.90;;;1.49;92.90;98853.63;2568485;30;138424;-40
2021/12/10 07:53:53;;;;;;;4.72;1.63;;;3.20;99.90;;;1.48;92.84;98854.66;2566777;30;137984;-40
2021/12/10 07:56:21;;;;;;;4.30;1.23;;;3.30;99.90;;;1.47;93.06;98850.31;2567388;30;136712;-40
2021/12/10 07:58:49;;;;;;;5.55;1.40;;;3.20;99.90;;;1.53;92.58;98846.81;2568907;30;138418;-40
2021/12/10 08:01:25;;;;;;;6.80;1.90;;;3.30;99.90;;;1.56;93.01;98852.59;2567356;30;137790;-40
2021/12/10 08:03:56;;;;;;;6.10;1.63;;;3.30;99.90;;;1.74;91.92;98853.09;2567673;30;138200;-40
2021/12/10 08:06:26;;;;;;;8.38;2.10;;;3.40;99.90;;;1.77;91.06;98852.69;2567271;30;138272;-40
2021/12/10 08:08:54;;;;;;;4.07;1.50;;;3.50;99.90;;;1.78;91.37;98849.75;2568166;30;138375;-40
2021/12/10 08:11:23;;;;;;;;;;;3.50;99.90;;;1.85;90.87;98844.41;2567367;30;137752;-40
2021/12/10 08:13:51;;;;;;;8.30;1.75;;;3.60;99.90;;;1.82;91.39;98850.19;2566804;30;139201;-40
2021/12/10 08:16:22;;;;;;;5.20;1.30;;;3.60;99.90;;;1.86;90.97;98854.97;2566997;30;137426;-40
2021/12/10 08:18:50;;;;;;;6.28;1.60;;;3.60;99.90;;;1.92;90.37;98850.63;2569127;30;137250;-40
2021/12/10 08:21:18;;;;;;;8.98;1.65;;;3.70;99.90;;;1.97;90.71;98853.50;2568223;30;137339;-40
2021/12/10 08:23:46;;;;;;;8.20;1.63;;;3.70;99.90;;;1.97;90.94;98856.22;2566576;30;139278;-40
2021/12/10 08:26:15;;;;;;;8.27;1.60;;;3.70;99.90;;;2.01;90.27;98846.72;2566652;30;138577;-40
2021/12/10 08:28:43;;;;;;;5.30;1.63;;;3.70;99.90;;;2.02;90.17;98847.53;2567691;30;138288;-40
2021/12/10 08:31:14;;;;;;;8.07;1.80;;;3.80;99.90;;;2.06;89.86;98840.69;2567026;30;137264;-40
2021/12/10 08:33:48;;;;;;;7.45;1.75;;;3.80;99.90;;;2.03;90.31;98843.00;2568748;30;137386;-40
2021/12/10 08:36:21;;;;;;;4.40;1.60;;;3.80;99.90;;;2.01;90.15;98827.03;2566061;30;138735;-39
2021/12/10 08:38:51;;;;;;;5.05;1.40;;;3.80;99.90;;;2.06;90.07;98829.94;2567477;30;138129;-40
2021/12/10 08:41:28;;;;;;;7.05;1.77;;;3.80;99.90;;;2.07;90.55;98826.22;2568268;30;136846;-40
2021/12/10 08:43:56;;;;;;;3.00;1.23;;;3.80;99.90;;;2.05;90.36;98830.16;2565646;30;139162;-40
2021/12/10 08:46:27;;;;;;;6.35;1.42;;;3.80;99.90;;;2.10;89.71;98831.19;2567786;30;137317;-40
2021/12/10 08:48:58;;;;;;;5.82;1.85;;;3.80;99.90;;;2.09;89.23;98837.59;2568092;30;138354;-40
2021/12/10 08:51:36;;;;;;;6.93;1.73;;;3.90;99.90;;;2.11;89.98;98837.41;2567031;30;137429;-40
2021/12/10 08:54:06;;;;;;;5.93;1.70;;;3.90;99.90;;;2.14;90.02;98832.44;2567873;30;137189;-40
2021/12/10 08:56:35;;;;;;;10.35;2.03;;;3.90;99.90;;;2.21;88.88;98831.63;2567943;30;136856;-40
2021/12/10 08:59:07;;;;;;;7.03;1.90;;;3.90;99.90;;;2.33;88.98;98824.56;2567229;30;138639;-40
2021/12/10 09:01:41;;;;;;;4.18;1.52;;;4.00;99.90;;;2.33;88.74;98821.88;2568520;30;138389;-40
2021/12/10 09:04:12;;;;;;;7.57;1.73;;;4.00;99.90;;;2.41;88.04;98819.00;2568018;30;137194;-40
2021/12/10 09:06:49;;;;;;;5.85;1.73;;;4.10;99.90;;;2.43;88.09;98819.63;2567133;30;138767;-40
2021/12/10 09:09:20;;;;;;;4.07;1.63;;;4.10;99.90;;;2.48;88.42;98829.72;2568488;30;137102;-40
2021/12/10 09:11:55;;;;;;;6.50;1.50;;;4.20;99.90;;;2.51;87.76;98821.25;2568260;30;138509;-40
2021/12/10 09:14:31;;;;;;;5.78;2.05;;;4.20;99.90;;;2.59;85.79;98820.19;2566425;30;137425;-39
2021/12/10 09:17:01;;;;;;;9.98;1.83;;;4.30;99.90;;;2.60;86.94;98816.47;2566664;30;136882;-40
2021/12/10 09:19:30;;;;;;;6.28;1.90;;;4.30;99.90;;;2.61;84.85;98828.06;2568243;30;139004;-40
2021/12/10 09:21:59;;;;;;;4.82;1.70;;;4.30;99.90;;;2.61;84.96;98820.81;2568481;30;136732;-39
2021/12/10 09:24:27;;;;;;;8.10;2.13;;;4.30;99.90;;;2.66;86.22;98828.28;2566680;30;139816;-40
2021/12/10 09:26:59;;;;;;;5.10;1.92;;;4.30;99.90;;;2.66;86.15;98829.13;2566626;30;137591;-40
2021/12/10 09:29:35;;;;;;;7.78;2.05;;;4.30;99.90;;;2.70;85.03;98822.25;2568854;30;138085;-37
2021/12/10 09:32:09;;;;;;;5.43;2.00;;;4.40;99.90;;;2.72;84.84;98827.44;2567606;30;137429;-37
2021/12/10 09:34:38;;;;;;;6.40;2.08;;;4.40;99.90;;;2.75;85.29;98828.88;2566939;30;139061;-37
2021/12/10 09:37:07;;;;;;;6.00;1.70;;;4.40;99.90;;;2.79;83.29;98832.81;2568450;30;138246;-37
2021/12/10 09:39:36;;;;;;;7.07;1.90;;;4.50;99.90;;;2.81;83.66;98823.50;2566669;30;138035;-37
2021/12/10 09:42:06;;;;;;;4.40;1.90;;;4.50;99.90;;;2.78;84.32;98820.38;2567492;30;138247;-37
2021/12/10 09:44:37;;;;;;;5.60;2.00;;;4.50;99.90;;;2.84;83.88;98817.69;2567715;30;137260;-37
2021/12/10 09:47:10;;;;;;;6.25;2.00;;;4.50;99.90;;;2.94;83.20;98825.31;2567713;30;137889;-37
2021/12/10 09:49:38;;;;;;;6.00;1.80;;;4.60;99.90;;;2.93;84.01;98817.44;2567476;30;137697;-37
2021/12/10 09:52:07;;;;;;;4.05;1.60;;;4.60;99.90;;;3.00;83.30;98823.63;2567948;30;136571;-37
2021/12/10 09:54:38;;;;;;;4.38;1.90;;;4.70;99.90;;;2.99;82.98;98830.91;2568515;30;137042;-37
2021/12/10 09:57:09;;;;;;;5.97;2.03;;;4.70;99.90;;;3.02;82.83;98833.16;2567855;30;137552;-38
2021/12/10 09:59:40;;;;;;;4.97;1.80;;;4.70;99.90;;;3.03;82.14;98828.59;2567901;30;138378;-37
2021/12/10 10:02:09;;;;;;;6.07;1.85;;;4.70;99.90;;;3.08;83.55;98833.34;2566942;30;137048;-38
2021/12/10 10:04:46;;;;;;;6.72;2.10;;;4.70;99.90;;;3.06;81.59;98827.34;2568107;30;137779;-37
2021/12/10 10:07:28;;;;;;;6.43;2.15;;;4.70;99.90;;;3.02;82.56;98814.31;2567184;30;137315;-37
2021/12/10 10:10:14;;;;;;;5.40;1.75;;;4.70;99.90;;;3.05;81.64;98820.31;2568283;30;137074;-37
2021/12/10 10:12:48;;;;;;;6.03;1.98;;;4.70;99.90;;;3.02;82.15;98814.31;2567534;30;137824;-37
2021/12/10 10:15:26;;;;;;;6.38;2.20;;;4.70;99.90;;;2.98;82.61;98813.06;2568275;30;138328;-37
2021/12/10 10:17:57;;;;;;;6.65;2.15;;;4.70;99.90;;;3.07;80.91;98807.44;2567116;30;137399;-37
2021/12/10 10:20:29;;;;;;;6.07;1.90;;;4.80;99.90;;;3.02;80.01;98795.44;2567559;30;137561;-37
2021/12/10 10:22:57;;;;;;;8.35;1.85;;;4.80;99.90;;;3.00;80.15;98789.44;2568942;30;137496;-37
2021/12/10 10:25:29;;;;;;;7.63;2.28;;;4.70;99.90;;;3.01;82.10;98787.56;2569245;30;138134;-37
2021/12/10 10:27:57;;;;;;;5.53;1.98;;;4.70;99.90;;;3.04;82.43;98786.31;2569474;30;137752;-38
2021/12/10 10:30:37;;;;;;;5.93;1.88;;;4.70;99.90;;;3.12;83.09;98778.81;2567910;30;136953;-38
2021/12/10 10:33:09;;;;;;;6.43;2.17;;;4.80;99.90;;;3.12;81.58;98784.22;2567707;30;138239;-37
2021/12/10 10:35:48;;;;;;;4.78;1.90;;;4.80;99.90;;;3.18;81.12;98785.22;2566262;30;138192;-38
2021/12/10 10:38:17;;;;;;;7.45;1.85;;;4.90;99.90;;;3.17;80.19;98780.84;2568108;30;137611;-37
2021/12/10 10:40:54;;;;;;;6.53;2.08;;;4.90;99.90;;;3.28;79.40;98784.75;2568103;30;138336;-37
2021/12/10 10:43:25;;;;;;;5.72;1.88;;;4.90;99.90;;;3.29;79.31;98781.84;2568514;30;138420;-37
2021/12/10 10:45:55;;;;;;;5.90;1.90;;;5.00;99.90;;;3.30;80.23;98778.13;2564876;30;137168;-37
2021/12/10 10:48:24;;;;;;;5.25;1.80;;;5.00;99.90;;;3.34;79.47;98785.78;2566638;30;136723;-37
2021/12/10 10:50:54;;;;;;;4.78;1.60;;;5.00;99.90;;;3.38;78.85;98778.91;2567008;30;138393;-37
2021/12/10 10:53:44;;;;;;;7.72;1.80;;;5.00;99.90;;;3.41;78.56;98767.69;2567504;30;138479;-37